sensor_id;sensor_type;location;lat;lon;timestamp;P1;durP1;ratioP1;P2;durP2;ratioP2
29430;SDS011;16404;49.902;10.074;2023-04-03T00:02:09;4.60;;;3.30;;
29430;SDS011;16404;49.902;10.074;2023-04-03T00:04:53;6.60;;;3.33;;
29430;SDS011;16404;49.902;10.074;2023-04-03T00:07:38;8.05;;;3.38;;
29430;SDS011;16404;49.902;10.074;2023-04-03T00:10:22;5.93;;;3.50;;
29430;SDS011;16404;49.902;10.074;2023-04-03T00:13:07;6.68;;;3.15;;
29430;SDS011;16404;49.902;10.074;2023-04-03T00:18:37;9.63;;;3.55;;
29430;SDS011;16404;49.902;10.074;2023-04-03T00:21:23;5.32;;;2.83;;
29430;SDS011;16404;49.902;10.074;2023-04-03T00:24:08;6.13;;;3.33;;
29430;SDS011;16404;49.902;10.074;2023-04-03T00:26:52;4.28;;;3.08;;
29430;SDS011;16404;49.902;10.074;2023-04-03T00:29:37;5.13;;;2.88;;
29430;SDS011;16404;49.902;10.074;2023-04-03T00:32:22;7.47;;;3.00;;
29430;SDS011;16404;49.902;10.074;2023-04-03T00:35:06;4.65;;;3.03;;
29430;SDS011;16404;49.902;10.074;2023-04-03T00:40:38;5.15;;;3.10;;
29430;SDS011;16404;49.902;10.074;2023-04-03T00:43:25;4.05;;;2.88;;
29430;SDS011;16404;49.902;10.074;2023-04-03T00:46:11;6.25;;;3.25;;
29430;SDS011;16404;49.902;10.074;2023-04-03T00:48:55;5.63;;;3.33;;
29430;SDS011;16404;49.902;10.074;2023-04-03T00:51:40;5.47;;;3.10;;
29430;SDS011;16404;49.902;10.074;2023-04-03T00:54:25;5.53;;;2.90;;
29430;SDS011;16404;49.902;10.074;2023-04-03T00:57:11;6.25;;;3.25;;
29430;SDS011;16404;49.902;10.074;2023-04-03T01:02:43;4.20;;;3.10;;
29430;SDS011;16404;49.902;10.074;2023-04-03T01:05:29;7.38;;;3.83;;
29430;SDS011;16404;49.902;10.074;2023-04-03T01:08:15;5.78;;;3.20;;
29430;SDS011;16404;49.902;10.074;2023-04-03T01:11:00;7.32;;;3.38;;
29430;SDS011;16404;49.902;10.074;2023-04-03T01:13:45;5.43;;;3.28;;
29430;SDS011;16404;49.902;10.074;2023-04-03T01:16:30;5.40;;;3.00;;
29430;SDS011;16404;49.902;10.074;2023-04-03T01:19:16;3.53;;;2.47;;
29430;SDS011;16404;49.902;10.074;2023-04-03T01:22:05;3.72;;;2.75;;
29430;SDS011;16404;49.902;10.074;2023-04-03T01:25:09;5.00;;;3.30;;
29430;SDS011;16404;49.902;10.074;2023-04-03T01:27:54;6.00;;;3.45;;
29430;SDS011;16404;49.902;10.074;2023-04-03T01:33:26;6.15;;;3.80;;
29430;SDS011;16404;49.902;10.074;2023-04-03T01:36:16;7.25;;;3.58;;
29430;SDS011;16404;49.902;10.074;2023-04-03T01:39:06;7.05;;;3.97;;
29430;SDS011;16404;49.902;10.074;2023-04-03T01:44:42;3.80;;;3.33;;
29430;SDS011;16404;49.902;10.074;2023-04-03T01:47:27;5.65;;;4.10;;
29430;SDS011;16404;49.902;10.074;2023-04-03T01:50:11;5.50;;;4.00;;
29430;SDS011;16404;49.902;10.074;2023-04-03T01:52:56;11.45;;;4.70;;
29430;SDS011;16404;49.902;10.074;2023-04-03T01:55:41;6.68;;;4.47;;
29430;SDS011;16404;49.902;10.074;2023-04-03T01:58:25;6.68;;;4.20;;
29430;SDS011;16404;49.902;10.074;2023-04-03T02:01:11;5.35;;;4.10;;
29430;SDS011;16404;49.902;10.074;2023-04-03T02:03:55;9.07;;;4.00;;
29430;SDS011;16404;49.902;10.074;2023-04-03T02:06:40;6.78;;;4.13;;
29430;SDS011;16404;49.902;10.074;2023-04-03T02:09:25;11.02;;;4.88;;
29430;SDS011;16404;49.902;10.074;2023-04-03T02:12:10;8.57;;;4.90;;
29430;SDS011;16404;49.902;10.074;2023-04-03T02:14:55;6.07;;;4.38;;
29430;SDS011;16404;49.902;10.074;2023-04-03T02:17:40;7.88;;;4.45;;
29430;SDS011;16404;49.902;10.074;2023-04-03T02:20:24;6.97;;;4.35;;
29430;SDS011;16404;49.902;10.074;2023-04-03T02:26:02;8.65;;;5.55;;
29430;SDS011;16404;49.902;10.074;2023-04-03T02:28:47;12.70;;;5.20;;
29430;SDS011;16404;49.902;10.074;2023-04-03T02:31:32;10.48;;;5.30;;
29430;SDS011;16404;49.902;10.074;2023-04-03T02:34:19;8.40;;;5.13;;
29430;SDS011;16404;49.902;10.074;2023-04-03T02:37:04;6.63;;;4.55;;
29430;SDS011;16404;49.902;10.074;2023-04-03T02:39:49;7.15;;;4.57;;
29430;SDS011;16404;49.902;10.074;2023-04-03T02:42:34;8.20;;;5.20;;
29430;SDS011;16404;49.902;10.074;2023-04-03T02:45:20;6.28;;;4.72;;
29430;SDS011;16404;49.902;10.074;2023-04-03T02:48:05;7.70;;;4.35;;
29430;SDS011;16404;49.902;10.074;2023-04-03T02:50:50;10.15;;;5.03;;
29430;SDS011;16404;49.902;10.074;2023-04-03T02:53:34;6.88;;;4.90;;
29430;SDS011;16404;49.902;10.074;2023-04-03T02:56:26;9.30;;;4.80;;
29430;SDS011;16404;49.902;10.074;2023-04-03T03:01:57;7.97;;;4.70;;
29430;SDS011;16404;49.902;10.074;2023-04-03T03:04:41;6.65;;;4.65;;
29430;SDS011;16404;49.902;10.074;2023-04-03T03:07:26;8.88;;;4.72;;
29430;SDS011;16404;49.902;10.074;2023-04-03T03:10:11;11.30;;;4.63;;
29430;SDS011;16404;49.902;10.074;2023-04-03T03:12:55;9.05;;;4.60;;
29430;SDS011;16404;49.902;10.074;2023-04-03T03:15:40;7.05;;;4.57;;
29430;SDS011;16404;49.902;10.074;2023-04-03T03:18:25;7.38;;;3.85;;
29430;SDS011;16404;49.902;10.074;2023-04-03T03:23:55;12.55;;;4.03;;
29430;SDS011;16404;49.902;10.074;2023-04-03T03:26:39;9.23;;;4.03;;
29430;SDS011;16404;49.902;10.074;2023-04-03T03:29:24;7.03;;;4.13;;
29430;SDS011;16404;49.902;10.074;2023-04-03T03:34:53;7.85;;;3.75;;
29430;SDS011;16404;49.902;10.074;2023-04-03T03:37:38;10.32;;;3.97;;
29430;SDS011;16404;49.902;10.074;2023-04-03T03:40:23;9.02;;;4.10;;
29430;SDS011;16404;49.902;10.074;2023-04-03T03:43:07;12.45;;;4.35;;
29430;SDS011;16404;49.902;10.074;2023-04-03T03:45:52;6.43;;;4.07;;
29430;SDS011;16404;49.902;10.074;2023-04-03T03:48:37;10.55;;;4.55;;
29430;SDS011;16404;49.902;10.074;2023-04-03T03:51:22;10.60;;;4.60;;
29430;SDS011;16404;49.902;10.074;2023-04-03T03:54:07;7.55;;;4.00;;
29430;SDS011;16404;49.902;10.074;2023-04-03T03:59:36;11.55;;;4.40;;
29430;SDS011;16404;49.902;10.074;2023-04-03T04:02:21;8.82;;;4.07;;
29430;SDS011;16404;49.902;10.074;2023-04-03T04:05:05;8.85;;;4.57;;
29430;SDS011;16404;49.902;10.074;2023-04-03T04:10:35;8.95;;;4.50;;
29430;SDS011;16404;49.902;10.074;2023-04-03T04:13:22;6.85;;;4.38;;
29430;SDS011;16404;49.902;10.074;2023-04-03T04:16:07;9.40;;;4.63;;
29430;SDS011;16404;49.902;10.074;2023-04-03T04:21:37;5.22;;;4.57;;
29430;SDS011;16404;49.902;10.074;2023-04-03T04:24:23;7.43;;;4.55;;
29430;SDS011;16404;49.902;10.074;2023-04-03T04:27:10;10.10;;;4.65;;
29430;SDS011;16404;49.902;10.074;2023-04-03T04:29:55;11.45;;;4.60;;
29430;SDS011;16404;49.902;10.074;2023-04-03T04:32:40;9.52;;;4.68;;
29430;SDS011;16404;49.902;10.074;2023-04-03T04:35:24;8.75;;;4.53;;
29430;SDS011;16404;49.902;10.074;2023-04-03T04:38:10;6.63;;;4.40;;
29430;SDS011;16404;49.902;10.074;2023-04-03T04:40:55;10.73;;;4.80;;
29430;SDS011;16404;49.902;10.074;2023-04-03T04:43:40;10.50;;;4.57;;
29430;SDS011;16404;49.902;10.074;2023-04-03T04:46:27;7.10;;;4.55;;
29430;SDS011;16404;49.902;10.074;2023-04-03T04:49:15;9.60;;;5.03;;
29430;SDS011;16404;49.902;10.074;2023-04-03T04:52:00;8.23;;;4.45;;
29430;SDS011;16404;49.902;10.074;2023-04-03T04:54:48;8.05;;;4.85;;
29430;SDS011;16404;49.902;10.074;2023-04-03T04:57:33;12.45;;;5.35;;
29430;SDS011;16404;49.902;10.074;2023-04-03T05:00:18;8.55;;;4.95;;
29430;SDS011;16404;49.902;10.074;2023-04-03T05:03:04;7.45;;;4.97;;
29430;SDS011;16404;49.902;10.074;2023-04-03T05:05:48;10.60;;;5.28;;
29430;SDS011;16404;49.902;10.074;2023-04-03T05:08:33;9.75;;;4.95;;
29430;SDS011;16404;49.902;10.074;2023-04-03T05:11:18;8.57;;;4.50;;
29430;SDS011;16404;49.902;10.074;2023-04-03T05:14:07;7.50;;;4.07;;
29430;SDS011;16404;49.902;10.074;2023-04-03T05:16:52;9.05;;;4.75;;
29430;SDS011;16404;49.902;10.074;2023-04-03T05:19:39;9.60;;;5.10;;
29430;SDS011;16404;49.902;10.074;2023-04-03T05:22:26;11.38;;;5.50;;
29430;SDS011;16404;49.902;10.074;2023-04-03T05:25:14;9.40;;;5.03;;
29430;SDS011;16404;49.902;10.074;2023-04-03T05:28:01;12.15;;;5.40;;
29430;SDS011;16404;49.902;10.074;2023-04-03T05:30:52;9.15;;;4.70;;
29430;SDS011;16404;49.902;10.074;2023-04-03T05:33:41;7.90;;;4.25;;
29430;SDS011;16404;49.902;10.074;2023-04-03T05:36:31;10.20;;;4.57;;
29430;SDS011;16404;49.902;10.074;2023-04-03T05:39:20;9.73;;;4.55;;
29430;SDS011;16404;49.902;10.074;2023-04-03T05:42:06;7.65;;;4.72;;
29430;SDS011;16404;49.902;10.074;2023-04-03T05:44:51;8.23;;;4.63;;
29430;SDS011;16404;49.902;10.074;2023-04-03T05:47:36;13.13;;;4.70;;
29430;SDS011;16404;49.902;10.074;2023-04-03T05:50:21;7.57;;;4.20;;
29430;SDS011;16404;49.902;10.074;2023-04-03T05:53:19;7.78;;;4.20;;
29430;SDS011;16404;49.902;10.074;2023-04-03T05:56:09;9.50;;;4.40;;
29430;SDS011;16404;49.902;10.074;2023-04-03T05:58:57;6.93;;;3.78;;
29430;SDS011;16404;49.902;10.074;2023-04-03T06:01:42;7.68;;;4.10;;
29430;SDS011;16404;49.902;10.074;2023-04-03T06:07:16;9.50;;;4.22;;
29430;SDS011;16404;49.902;10.074;2023-04-03T06:10:03;5.50;;;3.65;;
29430;SDS011;16404;49.902;10.074;2023-04-03T06:15:32;6.57;;;3.83;;
29430;SDS011;16404;49.902;10.074;2023-04-03T06:21:01;7.53;;;4.13;;
29430;SDS011;16404;49.902;10.074;2023-04-03T06:26:31;11.52;;;3.85;;
29430;SDS011;16404;49.902;10.074;2023-04-03T06:29:16;9.30;;;4.53;;
29430;SDS011;16404;49.902;10.074;2023-04-03T06:34:45;9.52;;;4.60;;
29430;SDS011;16404;49.902;10.074;2023-04-03T06:37:30;8.38;;;4.20;;
29430;SDS011;16404;49.902;10.074;2023-04-03T06:40:18;6.60;;;4.15;;
29430;SDS011;16404;49.902;10.074;2023-04-03T06:43:06;7.13;;;4.53;;
29430;SDS011;16404;49.902;10.074;2023-04-03T06:45:51;10.93;;;4.20;;
29430;SDS011;16404;49.902;10.074;2023-04-03T06:48:35;7.18;;;4.40;;
29430;SDS011;16404;49.902;10.074;2023-04-03T06:51:21;8.10;;;4.30;;
29430;SDS011;16404;49.902;10.074;2023-04-03T06:54:11;11.43;;;4.20;;
29430;SDS011;16404;49.902;10.074;2023-04-03T06:56:55;6.20;;;3.92;;
29430;SDS011;16404;49.902;10.074;2023-04-03T06:59:40;8.75;;;3.95;;
29430;SDS011;16404;49.902;10.074;2023-04-03T07:02:25;7.03;;;4.13;;
29430;SDS011;16404;49.902;10.074;2023-04-03T07:07:55;12.43;;;4.20;;
29430;SDS011;16404;49.902;10.074;2023-04-03T07:10:40;6.65;;;3.72;;
29430;SDS011;16404;49.902;10.074;2023-04-03T07:13:25;8.68;;;3.90;;
29430;SDS011;16404;49.902;10.074;2023-04-03T07:18:55;7.03;;;3.92;;
29430;SDS011;16404;49.902;10.074;2023-04-03T07:21:39;9.98;;;4.18;;
29430;SDS011;16404;49.902;10.074;2023-04-03T07:24:25;7.28;;;3.88;;
29430;SDS011;16404;49.902;10.074;2023-04-03T07:27:10;5.32;;;3.28;;
29430;SDS011;16404;49.902;10.074;2023-04-03T07:29:56;6.95;;;3.58;;
29430;SDS011;16404;49.902;10.074;2023-04-03T07:32:41;6.43;;;3.55;;
29430;SDS011;16404;49.902;10.074;2023-04-03T07:35:25;7.68;;;3.88;;
29430;SDS011;16404;49.902;10.074;2023-04-03T07:38:10;7.57;;;3.50;;
29430;SDS011;16404;49.902;10.074;2023-04-03T07:40:55;5.57;;;3.78;;
29430;SDS011;16404;49.902;10.074;2023-04-03T07:43:39;7.63;;;3.90;;
29430;SDS011;16404;49.902;10.074;2023-04-03T07:49:09;8.07;;;3.75;;
29430;SDS011;16404;49.902;10.074;2023-04-03T07:51:54;6.55;;;2.95;;
29430;SDS011;16404;49.902;10.074;2023-04-03T07:54:39;8.82;;;3.58;;
29430;SDS011;16404;49.902;10.074;2023-04-03T07:57:23;10.80;;;3.30;;
29430;SDS011;16404;49.902;10.074;2023-04-03T08:00:08;6.75;;;3.05;;
29430;SDS011;16404;49.902;10.074;2023-04-03T08:02:56;8.45;;;3.42;;
29430;SDS011;16404;49.902;10.074;2023-04-03T08:05:41;7.45;;;3.22;;
29430;SDS011;16404;49.902;10.074;2023-04-03T08:08:26;6.05;;;3.15;;
29430;SDS011;16404;49.902;10.074;2023-04-03T08:11:13;6.03;;;2.95;;
29430;SDS011;16404;49.902;10.074;2023-04-03T08:13:57;7.93;;;3.17;;
29430;SDS011;16404;49.902;10.074;2023-04-03T08:16:43;7.85;;;3.45;;
29430;SDS011;16404;49.902;10.074;2023-04-03T08:19:29;5.70;;;3.22;;
29430;SDS011;16404;49.902;10.074;2023-04-03T08:22:14;8.95;;;3.25;;
29430;SDS011;16404;49.902;10.074;2023-04-03T08:24:59;5.97;;;3.40;;
29430;SDS011;16404;49.902;10.074;2023-04-03T08:27:45;5.03;;;3.20;;
29430;SDS011;16404;49.902;10.074;2023-04-03T08:30:30;5.82;;;3.13;;
29430;SDS011;16404;49.902;10.074;2023-04-03T08:33:14;5.93;;;3.25;;
29430;SDS011;16404;49.902;10.074;2023-04-03T08:35:59;4.28;;;2.88;;
29430;SDS011;16404;49.902;10.074;2023-04-03T08:38:43;5.05;;;2.75;;
29430;SDS011;16404;49.902;10.074;2023-04-03T08:41:38;5.60;;;2.85;;
29430;SDS011;16404;49.902;10.074;2023-04-03T08:45:07;5.80;;;2.67;;
29430;SDS011;16404;49.902;10.074;2023-04-03T08:47:42;5.88;;;2.90;;
29430;SDS011;16404;49.902;10.074;2023-04-03T08:50:36;7.15;;;3.00;;
29430;SDS011;16404;49.902;10.074;2023-04-03T08:53:28;5.53;;;2.83;;
29430;SDS011;16404;49.902;10.074;2023-04-03T08:56:16;7.15;;;2.67;;
29430;SDS011;16404;49.902;10.074;2023-04-03T08:59:07;5.18;;;2.78;;
29430;SDS011;16404;49.902;10.074;2023-04-03T09:01:58;6.63;;;2.72;;
29430;SDS011;16404;49.902;10.074;2023-04-03T09:04:49;8.20;;;3.03;;
29430;SDS011;16404;49.902;10.074;2023-04-03T09:07:36;3.95;;;2.60;;
29430;SDS011;16404;49.902;10.074;2023-04-03T09:10:28;6.40;;;2.70;;
29430;SDS011;16404;49.902;10.074;2023-04-03T09:13:30;6.40;;;2.63;;
29430;SDS011;16404;49.902;10.074;2023-04-03T09:17:26;5.97;;;2.60;;
29430;SDS011;16404;49.902;10.074;2023-04-03T09:20:25;4.53;;;2.45;;
29430;SDS011;16404;49.902;10.074;2023-04-03T09:26:21;5.93;;;2.40;;
29430;SDS011;16404;49.902;10.074;2023-04-03T09:29:15;7.38;;;2.53;;
29430;SDS011;16404;49.902;10.074;2023-04-03T09:32:11;4.25;;;2.35;;
29430;SDS011;16404;49.902;10.074;2023-04-03T09:35:30;5.35;;;2.72;;
29430;SDS011;16404;49.902;10.074;2023-04-03T09:38:20;6.00;;;2.10;;
29430;SDS011;16404;49.902;10.074;2023-04-03T09:41:07;7.28;;;2.42;;
29430;SDS011;16404;49.902;10.074;2023-04-03T09:43:58;5.22;;;1.80;;
29430;SDS011;16404;49.902;10.074;2023-04-03T09:46:43;3.83;;;1.80;;
29430;SDS011;16404;49.902;10.074;2023-04-03T09:49:27;8.32;;;2.33;;
29430;SDS011;16404;49.902;10.074;2023-04-03T09:52:19;7.25;;;2.38;;
29430;SDS011;16404;49.902;10.074;2023-04-03T09:55:13;3.58;;;2.20;;
29430;SDS011;16404;49.902;10.074;2023-04-03T09:58:01;4.80;;;2.15;;
29430;SDS011;16404;49.902;10.074;2023-04-03T10:00:53;4.97;;;2.50;;
29430;SDS011;16404;49.902;10.074;2023-04-03T10:03:39;3.90;;;2.10;;
29430;SDS011;16404;49.902;10.074;2023-04-03T10:06:31;3.15;;;2.08;;
29430;SDS011;16404;49.902;10.074;2023-04-03T10:09:27;5.45;;;2.47;;
29430;SDS011;16404;49.902;10.074;2023-04-03T10:12:14;4.00;;;1.90;;
29430;SDS011;16404;49.902;10.074;2023-04-03T10:15:10;3.80;;;2.17;;
29430;SDS011;16404;49.902;10.074;2023-04-03T10:18:00;4.20;;;2.50;;
29430;SDS011;16404;49.902;10.074;2023-04-03T10:20:51;3.35;;;2.00;;
29430;SDS011;16404;49.902;10.074;2023-04-03T10:26:45;2.75;;;1.70;;
29430;SDS011;16404;49.902;10.074;2023-04-03T10:29:45;5.53;;;2.17;;
29430;SDS011;16404;49.902;10.074;2023-04-03T10:32:58;4.97;;;1.92;;
29430;SDS011;16404;49.902;10.074;2023-04-03T10:45:03;4.78;;;2.00;;
29430;SDS011;16404;49.902;10.074;2023-04-03T10:48:29;5.70;;;2.10;;
29430;SDS011;16404;49.902;10.074;2023-04-03T10:51:42;4.35;;;2.17;;
29430;SDS011;16404;49.902;10.074;2023-04-03T10:54:32;2.97;;;1.92;;
29430;SDS011;16404;49.902;10.074;2023-04-03T10:57:22;4.22;;;1.80;;
29430;SDS011;16404;49.902;10.074;2023-04-03T11:00:18;4.03;;;1.88;;
29430;SDS011;16404;49.902;10.074;2023-04-03T11:03:10;3.35;;;1.48;;
29430;SDS011;16404;49.902;10.074;2023-04-03T11:05:59;5.30;;;1.80;;
29430;SDS011;16404;49.902;10.074;2023-04-03T11:09:11;2.28;;;1.80;;
29430;SDS011;16404;49.902;10.074;2023-04-03T11:15:43;3.78;;;1.67;;
29430;SDS011;16404;49.902;10.074;2023-04-03T11:18:34;3.15;;;1.70;;
29430;SDS011;16404;49.902;10.074;2023-04-03T11:21:57;3.28;;;1.70;;
29430;SDS011;16404;49.902;10.074;2023-04-03T11:24:42;7.28;;;1.88;;
29430;SDS011;16404;49.902;10.074;2023-04-03T11:27:33;2.65;;;1.83;;
29430;SDS011;16404;49.902;10.074;2023-04-03T11:33:21;5.32;;;1.70;;
29430;SDS011;16404;49.902;10.074;2023-04-03T11:36:27;3.97;;;1.52;;
29430;SDS011;16404;49.902;10.074;2023-04-03T11:39:18;3.03;;;1.45;;
29430;SDS011;16404;49.902;10.074;2023-04-03T11:42:17;2.85;;;1.38;;
29430;SDS011;16404;49.902;10.074;2023-04-03T11:57:38;5.85;;;2.03;;
29430;SDS011;16404;49.902;10.074;2023-04-03T12:03:31;3.72;;;1.88;;
29430;SDS011;16404;49.902;10.074;2023-04-03T12:09:01;4.20;;;1.67;;
29430;SDS011;16404;49.902;10.074;2023-04-03T12:11:46;2.80;;;1.67;;
29430;SDS011;16404;49.902;10.074;2023-04-03T12:14:31;4.35;;;1.98;;
29430;SDS011;16404;49.902;10.074;2023-04-03T12:17:20;3.92;;;1.80;;
29430;SDS011;16404;49.902;10.074;2023-04-03T12:23:32;4.28;;;1.50;;
29430;SDS011;16404;49.902;10.074;2023-04-03T12:26:20;4.13;;;2.00;;
29430;SDS011;16404;49.902;10.074;2023-04-03T12:32:37;6.47;;;1.88;;
29430;SDS011;16404;49.902;10.074;2023-04-03T12:44:52;3.40;;;1.75;;
29430;SDS011;16404;49.902;10.074;2023-04-03T12:47:48;5.68;;;1.92;;
29430;SDS011;16404;49.902;10.074;2023-04-03T12:50:34;3.38;;;1.70;;
29430;SDS011;16404;49.902;10.074;2023-04-03T12:53:19;3.55;;;1.30;;
29430;SDS011;16404;49.902;10.074;2023-04-03T12:56:23;1.65;;;1.33;;
29430;SDS011;16404;49.902;10.074;2023-04-03T12:59:16;6.10;;;2.22;;
29430;SDS011;16404;49.902;10.074;2023-04-03T13:02:14;3.67;;;1.65;;
29430;SDS011;16404;49.902;10.074;2023-04-03T13:05:15;3.33;;;1.45;;
29430;SDS011;16404;49.902;10.074;2023-04-03T13:08:03;3.25;;;1.90;;
29430;SDS011;16404;49.902;10.074;2023-04-03T13:11:02;4.18;;;1.95;;
29430;SDS011;16404;49.902;10.074;2023-04-03T13:17:04;3.05;;;1.67;;
29430;SDS011;16404;49.902;10.074;2023-04-03T13:20:09;3.72;;;1.70;;
29430;SDS011;16404;49.902;10.074;2023-04-03T13:23:06;7.55;;;1.98;;
29430;SDS011;16404;49.902;10.074;2023-04-03T13:25:53;4.15;;;1.85;;
29430;SDS011;16404;49.902;10.074;2023-04-03T13:28:39;2.70;;;1.60;;
29430;SDS011;16404;49.902;10.074;2023-04-03T13:31:27;2.30;;;1.50;;
29430;SDS011;16404;49.902;10.074;2023-04-03T13:34:19;3.97;;;1.60;;
29430;SDS011;16404;49.902;10.074;2023-04-03T13:37:06;4.18;;;1.90;;
29430;SDS011;16404;49.902;10.074;2023-04-03T13:39:59;4.57;;;1.95;;
29430;SDS011;16404;49.902;10.074;2023-04-03T13:42:59;4.57;;;1.50;;
29430;SDS011;16404;49.902;10.074;2023-04-03T13:46:04;2.90;;;1.40;;
29430;SDS011;16404;49.902;10.074;2023-04-03T13:55:23;3.20;;;1.75;;
29430;SDS011;16404;49.902;10.074;2023-04-03T14:04:10;3.97;;;1.60;;
29430;SDS011;16404;49.902;10.074;2023-04-03T14:06:59;2.50;;;1.38;;
29430;SDS011;16404;49.902;10.074;2023-04-03T14:09:43;2.80;;;1.50;;
29430;SDS011;16404;49.902;10.074;2023-04-03T14:12:33;6.22;;;1.77;;
29430;SDS011;16404;49.902;10.074;2023-04-03T14:15:26;4.97;;;1.73;;
29430;SDS011;16404;49.902;10.074;2023-04-03T14:18:13;5.13;;;1.75;;
29430;SDS011;16404;49.902;10.074;2023-04-03T14:21:00;2.22;;;1.80;;
29430;SDS011;16404;49.902;10.074;2023-04-03T14:23:45;6.72;;;1.88;;
29430;SDS011;16404;49.902;10.074;2023-04-03T14:26:30;3.42;;;1.83;;
29430;SDS011;16404;49.902;10.074;2023-04-03T14:29:15;3.67;;;1.90;;
29430;SDS011;16404;49.902;10.074;2023-04-03T14:32:00;5.60;;;1.38;;
29430;SDS011;16404;49.902;10.074;2023-04-03T14:34:45;4.03;;;1.77;;
29430;SDS011;16404;49.902;10.074;2023-04-03T14:37:30;8.60;;;1.60;;
29430;SDS011;16404;49.902;10.074;2023-04-03T14:40:17;3.78;;;1.63;;
29430;SDS011;16404;49.902;10.074;2023-04-03T14:43:05;1.50;;;1.40;;
29430;SDS011;16404;49.902;10.074;2023-04-03T14:45:50;4.88;;;1.60;;
29430;SDS011;16404;49.902;10.074;2023-04-03T14:48:35;2.70;;;1.65;;
29430;SDS011;16404;49.902;10.074;2023-04-03T14:51:19;3.65;;;1.60;;
29430;SDS011;16404;49.902;10.074;2023-04-03T14:54:05;3.33;;;1.67;;
29430;SDS011;16404;49.902;10.074;2023-04-03T14:56:55;4.80;;;1.58;;
29430;SDS011;16404;49.902;10.074;2023-04-03T14:59:42;4.32;;;1.52;;
29430;SDS011;16404;49.902;10.074;2023-04-03T15:02:37;8.40;;;1.52;;
29430;SDS011;16404;49.902;10.074;2023-04-03T15:05:22;1.75;;;1.35;;
29430;SDS011;16404;49.902;10.074;2023-04-03T15:08:40;3.58;;;1.70;;
29430;SDS011;16404;49.902;10.074;2023-04-03T15:11:18;2.95;;;1.50;;
29430;SDS011;16404;49.902;10.074;2023-04-03T15:14:02;9.15;;;1.60;;
29430;SDS011;16404;49.902;10.074;2023-04-03T15:16:48;2.67;;;1.60;;
29430;SDS011;16404;49.902;10.074;2023-04-03T15:22:19;4.47;;;1.35;;
29430;SDS011;16404;49.902;10.074;2023-04-03T15:25:04;2.60;;;1.35;;
29430;SDS011;16404;49.902;10.074;2023-04-03T15:27:49;4.40;;;1.85;;
29430;SDS011;16404;49.902;10.074;2023-04-03T15:30:34;3.08;;;1.33;;
29430;SDS011;16404;49.902;10.074;2023-04-03T15:33:23;3.20;;;1.52;;
29430;SDS011;16404;49.902;10.074;2023-04-03T15:36:08;3.30;;;1.63;;
29430;SDS011;16404;49.902;10.074;2023-04-03T15:38:52;2.17;;;1.30;;
29430;SDS011;16404;49.902;10.074;2023-04-03T15:41:37;4.30;;;1.65;;
29430;SDS011;16404;49.902;10.074;2023-04-03T15:44:21;8.75;;;1.58;;
29430;SDS011;16404;49.902;10.074;2023-04-03T15:47:06;2.67;;;1.40;;
29430;SDS011;16404;49.902;10.074;2023-04-03T15:52:36;3.95;;;1.63;;
29430;SDS011;16404;49.902;10.074;2023-04-03T15:55:22;2.75;;;1.45;;
29430;SDS011;16404;49.902;10.074;2023-04-03T15:58:07;3.38;;;1.30;;
29430;SDS011;16404;49.902;10.074;2023-04-03T16:00:51;3.57;;;1.70;;
29430;SDS011;16404;49.902;10.074;2023-04-03T16:03:36;5.75;;;1.70;;
29430;SDS011;16404;49.902;10.074;2023-04-03T16:06:28;6.00;;;1.90;;
29430;SDS011;16404;49.902;10.074;2023-04-03T16:09:14;3.15;;;1.30;;
29430;SDS011;16404;49.902;10.074;2023-04-03T16:11:59;4.50;;;1.45;;
29430;SDS011;16404;49.902;10.074;2023-04-03T16:14:44;4.57;;;2.05;;
29430;SDS011;16404;49.902;10.074;2023-04-03T16:17:29;5.55;;;1.70;;
29430;SDS011;16404;49.902;10.074;2023-04-03T16:20:15;2.75;;;1.50;;
29430;SDS011;16404;49.902;10.074;2023-04-03T16:23:00;5.80;;;1.30;;
29430;SDS011;16404;49.902;10.074;2023-04-03T16:25:45;3.50;;;1.80;;
29430;SDS011;16404;49.902;10.074;2023-04-03T16:28:30;3.42;;;1.75;;
29430;SDS011;16404;49.902;10.074;2023-04-03T16:31:15;3.72;;;1.50;;
29430;SDS011;16404;49.902;10.074;2023-04-03T16:34:00;2.45;;;1.20;;
29430;SDS011;16404;49.902;10.074;2023-04-03T16:36:45;5.20;;;1.50;;
29430;SDS011;16404;49.902;10.074;2023-04-03T16:39:30;4.55;;;1.70;;
29430;SDS011;16404;49.902;10.074;2023-04-03T16:42:14;4.03;;;1.50;;
29430;SDS011;16404;49.902;10.074;2023-04-03T16:44:59;4.20;;;1.58;;
29430;SDS011;16404;49.902;10.074;2023-04-03T16:47:47;5.97;;;1.73;;
29430;SDS011;16404;49.902;10.074;2023-04-03T16:50:31;4.53;;;1.95;;
29430;SDS011;16404;49.902;10.074;2023-04-03T16:53:16;5.38;;;1.98;;
29430;SDS011;16404;49.902;10.074;2023-04-03T16:56:01;4.18;;;1.67;;
29430;SDS011;16404;49.902;10.074;2023-04-03T16:58:45;6.97;;;1.63;;
29430;SDS011;16404;49.902;10.074;2023-04-03T17:01:30;1.85;;;1.20;;
29430;SDS011;16404;49.902;10.074;2023-04-03T17:04:15;2.95;;;1.40;;
29430;SDS011;16404;49.902;10.074;2023-04-03T17:06:59;3.13;;;1.50;;
29430;SDS011;16404;49.902;10.074;2023-04-03T17:09:49;5.28;;;1.65;;
29430;SDS011;16404;49.902;10.074;2023-04-03T17:15:19;6.70;;;1.77;;
29430;SDS011;16404;49.902;10.074;2023-04-03T17:20:48;4.55;;;1.92;;
29430;SDS011;16404;49.902;10.074;2023-04-03T17:23:33;2.97;;;1.55;;
29430;SDS011;16404;49.902;10.074;2023-04-03T17:26:18;5.72;;;1.63;;
29430;SDS011;16404;49.902;10.074;2023-04-03T17:29:04;4.57;;;1.40;;
29430;SDS011;16404;49.902;10.074;2023-04-03T17:31:49;2.92;;;1.40;;
29430;SDS011;16404;49.902;10.074;2023-04-03T17:34:33;5.00;;;1.45;;
29430;SDS011;16404;49.902;10.074;2023-04-03T17:37:19;2.10;;;1.20;;
29430;SDS011;16404;49.902;10.074;2023-04-03T17:40:04;5.88;;;1.58;;
29430;SDS011;16404;49.902;10.074;2023-04-03T17:42:49;4.03;;;1.55;;
29430;SDS011;16404;49.902;10.074;2023-04-03T17:45:34;4.38;;;1.48;;
29430;SDS011;16404;49.902;10.074;2023-04-03T17:48:19;6.93;;;1.50;;
29430;SDS011;16404;49.902;10.074;2023-04-03T17:51:08;6.57;;;1.85;;
29430;SDS011;16404;49.902;10.074;2023-04-03T17:53:54;4.78;;;1.90;;
29430;SDS011;16404;49.902;10.074;2023-04-03T17:56:39;3.35;;;1.88;;
29430;SDS011;16404;49.902;10.074;2023-04-03T17:59:30;3.17;;;1.58;;
29430;SDS011;16404;49.902;10.074;2023-04-03T18:02:15;3.97;;;1.63;;
29430;SDS011;16404;49.902;10.074;2023-04-03T18:04:59;4.50;;;1.63;;
29430;SDS011;16404;49.902;10.074;2023-04-03T18:07:44;3.55;;;1.60;;
29430;SDS011;16404;49.902;10.074;2023-04-03T18:10:29;4.60;;;1.58;;
29430;SDS011;16404;49.902;10.074;2023-04-03T18:13:13;1.80;;;1.40;;
29430;SDS011;16404;49.902;10.074;2023-04-03T18:15:58;7.78;;;1.63;;
29430;SDS011;16404;49.902;10.074;2023-04-03T18:18:43;5.82;;;1.77;;
29430;SDS011;16404;49.902;10.074;2023-04-03T18:21:27;5.07;;;1.45;;
29430;SDS011;16404;49.902;10.074;2023-04-03T18:24:13;4.85;;;1.70;;
29430;SDS011;16404;49.902;10.074;2023-04-03T18:27:04;3.55;;;1.60;;
29430;SDS011;16404;49.902;10.074;2023-04-03T18:29:58;5.65;;;1.45;;
29430;SDS011;16404;49.902;10.074;2023-04-03T18:32:45;6.53;;;1.50;;
29430;SDS011;16404;49.902;10.074;2023-04-03T18:35:30;2.53;;;1.60;;
29430;SDS011;16404;49.902;10.074;2023-04-03T18:38:14;3.13;;;1.42;;
29430;SDS011;16404;49.902;10.074;2023-04-03T18:40:59;4.75;;;1.65;;
29430;SDS011;16404;49.902;10.074;2023-04-03T18:43:45;5.85;;;1.75;;
29430;SDS011;16404;49.902;10.074;2023-04-03T18:46:30;6.05;;;2.20;;
29430;SDS011;16404;49.902;10.074;2023-04-03T18:49:15;4.22;;;1.98;;
29430;SDS011;16404;49.902;10.074;2023-04-03T18:52:01;7.28;;;1.90;;
29430;SDS011;16404;49.902;10.074;2023-04-03T18:54:46;3.05;;;1.70;;